sensor_id;sensor_type;location;lat;lon;timestamp;P1;durP1;ratioP1;P2;durP2;ratioP2
37781;SDS011;23621;50.878;4.584;2023-11-21T00:01:38;33.30;;;21.25;;
37781;SDS011;23621;50.878;4.584;2023-11-21T00:04:25;37.13;;;23.50;;
37781;SDS011;23621;50.878;4.584;2023-11-21T00:07:14;36.50;;;22.13;;
37781;SDS011;23621;50.878;4.584;2023-11-21T00:10:02;36.78;;;23.33;;
37781;SDS011;23621;50.878;4.584;2023-11-21T00:12:53;33.08;;;22.05;;
37781;SDS011;23621;50.878;4.584;2023-11-21T00:15:42;32.00;;;22.52;;
37781;SDS011;23621;50.878;4.584;2023-11-21T00:18:29;35.22;;;22.52;;
37781;SDS011;23621;50.878;4.584;2023-11-21T00:21:16;34.08;;;23.17;;
37781;SDS011;23621;50.878;4.584;2023-11-21T00:24:04;33.65;;;20.23;;
37781;SDS011;23621;50.878;4.584;2023-11-21T00:26:52;33.08;;;21.58;;
37781;SDS011;23621;50.878;4.584;2023-11-21T00:29:39;33.80;;;22.65;;
37781;SDS011;23621;50.878;4.584;2023-11-21T00:32:27;33.10;;;23.23;;
37781;SDS011;23621;50.878;4.584;2023-11-21T00:35:14;34.53;;;22.65;;
37781;SDS011;23621;50.878;4.584;2023-11-21T00:38:02;33.33;;;22.13;;
37781;SDS011;23621;50.878;4.584;2023-11-21T00:40:50;30.00;;;21.25;;
37781;SDS011;23621;50.878;4.584;2023-11-21T00:43:38;35.50;;;21.27;;
37781;SDS011;23621;50.878;4.584;2023-11-21T00:46:25;33.70;;;21.20;;
37781;SDS011;23621;50.878;4.584;2023-11-21T00:49:16;34.53;;;22.27;;
37781;SDS011;23621;50.878;4.584;2023-11-21T00:52:03;30.45;;;19.55;;
37781;SDS011;23621;50.878;4.584;2023-11-21T00:54:51;32.15;;;21.77;;
37781;SDS011;23621;50.878;4.584;2023-11-21T00:57:38;33.65;;;22.17;;
37781;SDS011;23621;50.878;4.584;2023-11-21T01:00:26;31.02;;;20.17;;
37781;SDS011;23621;50.878;4.584;2023-11-21T01:03:14;31.50;;;20.98;;
37781;SDS011;23621;50.878;4.584;2023-11-21T01:06:01;30.73;;;20.38;;
37781;SDS011;23621;50.878;4.584;2023-11-21T01:08:48;30.27;;;19.85;;
37781;SDS011;23621;50.878;4.584;2023-11-21T01:11:36;33.67;;;19.80;;
37781;SDS011;23621;50.878;4.584;2023-11-21T01:14:24;26.00;;;18.65;;
37781;SDS011;23621;50.878;4.584;2023-11-21T01:17:13;28.75;;;18.95;;
37781;SDS011;23621;50.878;4.584;2023-11-21T01:20:01;25.58;;;18.90;;
37781;SDS011;23621;50.878;4.584;2023-11-21T01:22:50;23.35;;;17.05;;
37781;SDS011;23621;50.878;4.584;2023-11-21T01:25:37;25.50;;;17.80;;
37781;SDS011;23621;50.878;4.584;2023-11-21T01:28:24;26.35;;;17.92;;
37781;SDS011;23621;50.878;4.584;2023-11-21T01:31:13;26.15;;;17.77;;
37781;SDS011;23621;50.878;4.584;2023-11-21T01:34:00;28.83;;;17.67;;
37781;SDS011;23621;50.878;4.584;2023-11-21T01:36:48;25.52;;;17.60;;
37781;SDS011;23621;50.878;4.584;2023-11-21T01:39:35;24.02;;;15.73;;
37781;SDS011;23621;50.878;4.584;2023-11-21T01:42:25;24.88;;;16.90;;
37781;SDS011;23621;50.878;4.584;2023-11-21T01:45:13;23.23;;;16.30;;
37781;SDS011;23621;50.878;4.584;2023-11-21T01:48:01;26.67;;;16.77;;
37781;SDS011;23621;50.878;4.584;2023-11-21T01:50:50;28.02;;;18.85;;
37781;SDS011;23621;50.878;4.584;2023-11-21T01:53:38;27.48;;;17.98;;
37781;SDS011;23621;50.878;4.584;2023-11-21T01:56:26;36.45;;;21.05;;
37781;SDS011;23621;50.878;4.584;2023-11-21T01:59:14;36.58;;;23.42;;
37781;SDS011;23621;50.878;4.584;2023-11-21T02:02:08;34.75;;;20.67;;
37781;SDS011;23621;50.878;4.584;2023-11-21T02:04:56;34.03;;;20.98;;
37781;SDS011;23621;50.878;4.584;2023-11-21T02:07:44;34.55;;;22.83;;
37781;SDS011;23621;50.878;4.584;2023-11-21T02:10:34;32.58;;;22.10;;
37781;SDS011;23621;50.878;4.584;2023-11-21T02:13:23;36.55;;;22.70;;
37781;SDS011;23621;50.878;4.584;2023-11-21T02:16:11;32.47;;;21.75;;
37781;SDS011;23621;50.878;4.584;2023-11-21T02:19:02;35.30;;;21.85;;
37781;SDS011;23621;50.878;4.584;2023-11-21T02:21:53;32.10;;;22.15;;
37781;SDS011;23621;50.878;4.584;2023-11-21T02:24:41;31.90;;;21.25;;
37781;SDS011;23621;50.878;4.584;2023-11-21T02:27:29;34.45;;;21.63;;
37781;SDS011;23621;50.878;4.584;2023-11-21T02:30:16;33.88;;;22.60;;
37781;SDS011;23621;50.878;4.584;2023-11-21T02:33:05;31.15;;;20.05;;
37781;SDS011;23621;50.878;4.584;2023-11-21T02:35:54;32.85;;;22.15;;
37781;SDS011;23621;50.878;4.584;2023-11-21T02:38:41;33.28;;;20.85;;
37781;SDS011;23621;50.878;4.584;2023-11-21T02:41:29;29.85;;;20.50;;
37781;SDS011;23621;50.878;4.584;2023-11-21T02:44:16;29.23;;;20.48;;
37781;SDS011;23621;50.878;4.584;2023-11-21T02:47:04;30.77;;;22.27;;
37781;SDS011;23621;50.878;4.584;2023-11-21T02:49:51;34.33;;;23.90;;
37781;SDS011;23621;50.878;4.584;2023-11-21T02:52:39;33.05;;;21.70;;
37781;SDS011;23621;50.878;4.584;2023-11-21T02:55:27;31.80;;;22.13;;
37781;SDS011;23621;50.878;4.584;2023-11-21T02:58:14;29.42;;;20.38;;
37781;SDS011;23621;50.878;4.584;2023-11-21T03:01:02;31.58;;;20.45;;
37781;SDS011;23621;50.878;4.584;2023-11-21T03:03:52;33.08;;;20.95;;
37781;SDS011;23621;50.878;4.584;2023-11-21T03:06:39;31.50;;;21.60;;
37781;SDS011;23621;50.878;4.584;2023-11-21T03:09:27;30.13;;;21.63;;
37781;SDS011;23621;50.878;4.584;2023-11-21T03:12:14;28.42;;;21.23;;
37781;SDS011;23621;50.878;4.584;2023-11-21T03:15:02;30.15;;;21.17;;
37781;SDS011;23621;50.878;4.584;2023-11-21T03:17:52;30.23;;;19.65;;
37781;SDS011;23621;50.878;4.584;2023-11-21T03:20:39;31.73;;;20.75;;
37781;SDS011;23621;50.878;4.584;2023-11-21T03:23:28;28.67;;;19.42;;
37781;SDS011;23621;50.878;4.584;2023-11-21T03:26:15;27.10;;;19.30;;
37781;SDS011;23621;50.878;4.584;2023-11-21T03:29:03;29.85;;;19.48;;
37781;SDS011;23621;50.878;4.584;2023-11-21T03:31:51;23.27;;;17.77;;
37781;SDS011;23621;50.878;4.584;2023-11-21T03:34:52;27.70;;;18.65;;
37781;SDS011;23621;50.878;4.584;2023-11-21T03:37:42;27.77;;;17.88;;
37781;SDS011;23621;50.878;4.584;2023-11-21T03:40:30;26.00;;;17.95;;
37781;SDS011;23621;50.878;4.584;2023-11-21T03:43:18;22.80;;;18.30;;
37781;SDS011;23621;50.878;4.584;2023-11-21T03:46:06;26.88;;;18.75;;
37781;SDS011;23621;50.878;4.584;2023-11-21T03:48:54;27.58;;;18.65;;
37781;SDS011;23621;50.878;4.584;2023-11-21T03:51:42;27.55;;;17.40;;
37781;SDS011;23621;50.878;4.584;2023-11-21T03:54:29;23.65;;;16.75;;
37781;SDS011;23621;50.878;4.584;2023-11-21T03:57:17;25.67;;;17.52;;
37781;SDS011;23621;50.878;4.584;2023-11-21T04:00:04;25.17;;;16.90;;
37781;SDS011;23621;50.878;4.584;2023-11-21T04:02:55;23.52;;;17.35;;
37781;SDS011;23621;50.878;4.584;2023-11-21T04:05:42;25.83;;;17.00;;
37781;SDS011;23621;50.878;4.584;2023-11-21T04:08:30;29.50;;;17.83;;
37781;SDS011;23621;50.878;4.584;2023-11-21T04:11:17;25.65;;;16.83;;
37781;SDS011;23621;50.878;4.584;2023-11-21T04:14:04;24.13;;;17.48;;
37781;SDS011;23621;50.878;4.584;2023-11-21T04:16:52;26.67;;;16.77;;
37781;SDS011;23621;50.878;4.584;2023-11-21T04:19:40;28.65;;;15.73;;
37781;SDS011;23621;50.878;4.584;2023-11-21T04:22:28;24.73;;;15.60;;
37781;SDS011;23621;50.878;4.584;2023-11-21T04:25:15;23.73;;;14.77;;
37781;SDS011;23621;50.878;4.584;2023-11-21T04:28:04;24.90;;;14.98;;
37781;SDS011;23621;50.878;4.584;2023-11-21T04:30:51;21.83;;;15.48;;
37781;SDS011;23621;50.878;4.584;2023-11-21T04:33:38;21.92;;;14.77;;
37781;SDS011;23621;50.878;4.584;2023-11-21T04:36:26;24.85;;;15.23;;
37781;SDS011;23621;50.878;4.584;2023-11-21T04:39:13;23.58;;;15.57;;
37781;SDS011;23621;50.878;4.584;2023-11-21T04:42:00;24.40;;;16.48;;
37781;SDS011;23621;50.878;4.584;2023-11-21T04:44:49;22.20;;;16.30;;
37781;SDS011;23621;50.878;4.584;2023-11-21T04:47:36;20.75;;;15.88;;
37781;SDS011;23621;50.878;4.584;2023-11-21T04:50:24;24.92;;;16.70;;
37781;SDS011;23621;50.878;4.584;2023-11-21T04:53:13;25.73;;;16.30;;
37781;SDS011;23621;50.878;4.584;2023-11-21T04:56:01;25.45;;;16.17;;
37781;SDS011;23621;50.878;4.584;2023-11-21T04:58:50;25.52;;;16.42;;
37781;SDS011;23621;50.878;4.584;2023-11-21T05:01:37;24.88;;;16.63;;
37781;SDS011;23621;50.878;4.584;2023-11-21T05:04:25;25.20;;;17.13;;
37781;SDS011;23621;50.878;4.584;2023-11-21T05:07:14;23.98;;;17.05;;
37781;SDS011;23621;50.878;4.584;2023-11-21T05:10:04;26.45;;;16.42;;
37781;SDS011;23621;50.878;4.584;2023-11-21T05:12:58;23.58;;;16.15;;
37781;SDS011;23621;50.878;4.584;2023-11-21T05:15:46;25.98;;;16.42;;
37781;SDS011;23621;50.878;4.584;2023-11-21T05:18:33;24.77;;;16.05;;
37781;SDS011;23621;50.878;4.584;2023-11-21T05:21:21;22.63;;;15.57;;
37781;SDS011;23621;50.878;4.584;2023-11-21T05:24:08;25.40;;;16.23;;
37781;SDS011;23621;50.878;4.584;2023-11-21T05:26:56;26.13;;;16.38;;
37781;SDS011;23621;50.878;4.584;2023-11-21T05:29:43;23.42;;;15.85;;
37781;SDS011;23621;50.878;4.584;2023-11-21T05:32:33;23.52;;;16.27;;
37781;SDS011;23621;50.878;4.584;2023-11-21T05:35:21;23.40;;;16.23;;
37781;SDS011;23621;50.878;4.584;2023-11-21T05:38:08;23.45;;;15.88;;
37781;SDS011;23621;50.878;4.584;2023-11-21T05:40:56;22.77;;;16.23;;
37781;SDS011;23621;50.878;4.584;2023-11-21T05:43:45;29.52;;;17.55;;
37781;SDS011;23621;50.878;4.584;2023-11-21T05:46:32;24.75;;;16.60;;
37781;SDS011;23621;50.878;4.584;2023-11-21T05:49:20;27.02;;;17.48;;
37781;SDS011;23621;50.878;4.584;2023-11-21T05:52:13;22.75;;;16.08;;
37781;SDS011;23621;50.878;4.584;2023-11-21T05:55:00;29.60;;;19.13;;
37781;SDS011;23621;50.878;4.584;2023-11-21T05:57:47;25.42;;;18.40;;
37781;SDS011;23621;50.878;4.584;2023-11-21T06:00:35;27.80;;;18.30;;
37781;SDS011;23621;50.878;4.584;2023-11-21T06:03:23;23.48;;;17.75;;
37781;SDS011;23621;50.878;4.584;2023-11-21T06:06:12;25.17;;;18.92;;
37781;SDS011;23621;50.878;4.584;2023-11-21T06:08:59;30.30;;;17.48;;
37781;SDS011;23621;50.878;4.584;2023-11-21T06:11:46;26.58;;;18.58;;
37781;SDS011;23621;50.878;4.584;2023-11-21T06:14:34;25.13;;;18.45;;
37781;SDS011;23621;50.878;4.584;2023-11-21T06:17:21;25.00;;;18.15;;
37781;SDS011;23621;50.878;4.584;2023-11-21T06:20:11;26.85;;;18.42;;
37781;SDS011;23621;50.878;4.584;2023-11-21T06:23:02;28.52;;;18.55;;
37781;SDS011;23621;50.878;4.584;2023-11-21T06:25:50;21.92;;;17.38;;
37781;SDS011;23621;50.878;4.584;2023-11-21T06:28:38;23.80;;;17.95;;
37781;SDS011;23621;50.878;4.584;2023-11-21T06:31:25;24.65;;;19.27;;
37781;SDS011;23621;50.878;4.584;2023-11-21T06:34:13;23.67;;;18.05;;
37781;SDS011;23621;50.878;4.584;2023-11-21T06:37:00;25.98;;;18.45;;
37781;SDS011;23621;50.878;4.584;2023-11-21T06:39:47;25.42;;;18.60;;
37781;SDS011;23621;50.878;4.584;2023-11-21T06:42:35;26.23;;;18.48;;
37781;SDS011;23621;50.878;4.584;2023-11-21T06:45:25;23.27;;;17.55;;
37781;SDS011;23621;50.878;4.584;2023-11-21T06:48:13;26.73;;;18.90;;
37781;SDS011;23621;50.878;4.584;2023-11-21T06:51:00;23.02;;;17.35;;
37781;SDS011;23621;50.878;4.584;2023-11-21T06:53:50;25.48;;;18.48;;
37781;SDS011;23621;50.878;4.584;2023-11-21T06:56:37;26.45;;;17.45;;
37781;SDS011;23621;50.878;4.584;2023-11-21T06:59:25;28.17;;;17.92;;
37781;SDS011;23621;50.878;4.584;2023-11-21T07:02:15;25.70;;;18.30;;
37781;SDS011;23621;50.878;4.584;2023-11-21T07:05:05;25.83;;;18.80;;
37781;SDS011;23621;50.878;4.584;2023-11-21T07:07:52;21.88;;;17.25;;
37781;SDS011;23621;50.878;4.584;2023-11-21T07:10:41;24.50;;;18.63;;
37781;SDS011;23621;50.878;4.584;2023-11-21T07:13:28;25.45;;;18.27;;
37781;SDS011;23621;50.878;4.584;2023-11-21T07:16:16;26.67;;;18.42;;
37781;SDS011;23621;50.878;4.584;2023-11-21T07:19:05;27.23;;;18.48;;
37781;SDS011;23621;50.878;4.584;2023-11-21T07:21:56;23.98;;;18.20;;
37781;SDS011;23621;50.878;4.584;2023-11-21T07:24:43;29.33;;;18.63;;
37781;SDS011;23621;50.878;4.584;2023-11-21T07:27:30;23.73;;;17.42;;
37781;SDS011;23621;50.878;4.584;2023-11-21T07:30:20;22.15;;;17.20;;
37781;SDS011;23621;50.878;4.584;2023-11-21T07:33:09;25.10;;;18.83;;
37781;SDS011;23621;50.878;4.584;2023-11-21T07:35:57;29.58;;;19.60;;
37781;SDS011;23621;50.878;4.584;2023-11-21T07:38:44;30.27;;;20.17;;
37781;SDS011;23621;50.878;4.584;2023-11-21T07:41:31;31.20;;;20.50;;
37781;SDS011;23621;50.878;4.584;2023-11-21T07:44:19;28.23;;;19.88;;
37781;SDS011;23621;50.878;4.584;2023-11-21T07:47:07;29.02;;;20.05;;
37781;SDS011;23621;50.878;4.584;2023-11-21T07:49:54;25.40;;;20.05;;
37781;SDS011;23621;50.878;4.584;2023-11-21T07:52:43;30.73;;;21.20;;
37781;SDS011;23621;50.878;4.584;2023-11-21T07:55:30;28.60;;;21.33;;
37781;SDS011;23621;50.878;4.584;2023-11-21T07:58:19;28.15;;;21.65;;
37781;SDS011;23621;50.878;4.584;2023-11-21T08:01:06;29.23;;;21.13;;
37781;SDS011;23621;50.878;4.584;2023-11-21T08:03:54;30.23;;;21.33;;
37781;SDS011;23621;50.878;4.584;2023-11-21T08:06:45;28.45;;;21.23;;
37781;SDS011;23621;50.878;4.584;2023-11-21T08:09:33;30.60;;;21.65;;
37781;SDS011;23621;50.878;4.584;2023-11-21T08:12:21;28.23;;;21.88;;
37781;SDS011;23621;50.878;4.584;2023-11-21T08:15:08;30.88;;;21.17;;
37781;SDS011;23621;50.878;4.584;2023-11-21T08:17:57;29.08;;;20.67;;
37781;SDS011;23621;50.878;4.584;2023-11-21T08:20:45;30.40;;;20.95;;
37781;SDS011;23621;50.878;4.584;2023-11-21T08:23:34;28.17;;;21.05;;
37781;SDS011;23621;50.878;4.584;2023-11-21T08:26:21;27.58;;;20.00;;
37781;SDS011;23621;50.878;4.584;2023-11-21T08:29:09;28.80;;;21.27;;
37781;SDS011;23621;50.878;4.584;2023-11-21T08:31:57;27.60;;;19.65;;
37781;SDS011;23621;50.878;4.584;2023-11-21T08:34:44;31.15;;;20.52;;
37781;SDS011;23621;50.878;4.584;2023-11-21T08:37:33;30.48;;;21.30;;
37781;SDS011;23621;50.878;4.584;2023-11-21T08:40:24;33.10;;;20.65;;
37781;SDS011;23621;50.878;4.584;2023-11-21T08:43:12;33.97;;;23.48;;
37781;SDS011;23621;50.878;4.584;2023-11-21T08:46:01;37.25;;;23.52;;
37781;SDS011;23621;50.878;4.584;2023-11-21T08:48:48;40.30;;;23.52;;
37781;SDS011;23621;50.878;4.584;2023-11-21T08:51:36;38.03;;;24.50;;
37781;SDS011;23621;50.878;4.584;2023-11-21T08:54:23;36.70;;;23.27;;
37781;SDS011;23621;50.878;4.584;2023-11-21T08:57:10;41.58;;;24.27;;
37781;SDS011;23621;50.878;4.584;2023-11-21T08:59:58;36.05;;;24.13;;
37781;SDS011;23621;50.878;4.584;2023-11-21T09:02:45;37.15;;;23.80;;
37781;SDS011;23621;50.878;4.584;2023-11-21T09:05:33;40.58;;;24.30;;
37781;SDS011;23621;50.878;4.584;2023-11-21T09:08:25;36.30;;;24.05;;
37781;SDS011;23621;50.878;4.584;2023-11-21T09:11:14;35.72;;;23.60;;
37781;SDS011;23621;50.878;4.584;2023-11-21T09:14:02;36.88;;;24.58;;
37781;SDS011;23621;50.878;4.584;2023-11-21T09:16:50;42.40;;;24.98;;
37781;SDS011;23621;50.878;4.584;2023-11-21T09:19:37;37.35;;;24.23;;
37781;SDS011;23621;50.878;4.584;2023-11-21T09:22:25;43.15;;;25.85;;
37781;SDS011;23621;50.878;4.584;2023-11-21T09:25:13;38.13;;;24.08;;
37781;SDS011;23621;50.878;4.584;2023-11-21T09:28:01;40.88;;;26.08;;
37781;SDS011;23621;50.878;4.584;2023-11-21T09:30:51;38.70;;;25.05;;
37781;SDS011;23621;50.878;4.584;2023-11-21T09:33:39;40.50;;;25.25;;
37781;SDS011;23621;50.878;4.584;2023-11-21T09:36:26;41.88;;;25.00;;
37781;SDS011;23621;50.878;4.584;2023-11-21T09:39:16;40.33;;;24.48;;
37781;SDS011;23621;50.878;4.584;2023-11-21T09:47:53;42.50;;;20.73;;
37781;SDS011;23621;50.878;4.584;2023-11-21T09:50:42;41.55;;;20.60;;
37781;SDS011;23621;50.878;4.584;2023-11-21T09:53:30;41.92;;;20.85;;
37781;SDS011;23621;50.878;4.584;2023-11-21T09:56:20;40.13;;;19.92;;
37781;SDS011;23621;50.878;4.584;2023-11-21T09:59:12;46.10;;;21.95;;
37781;SDS011;23621;50.878;4.584;2023-11-21T10:02:02;38.90;;;20.17;;
37781;SDS011;23621;50.878;4.584;2023-11-21T10:04:50;44.25;;;20.85;;
37781;SDS011;23621;50.878;4.584;2023-11-21T10:07:38;36.80;;;19.23;;
37781;SDS011;23621;50.878;4.584;2023-11-21T10:10:28;45.95;;;21.10;;
37781;SDS011;23621;50.878;4.584;2023-11-21T10:13:17;47.30;;;23.17;;
37781;SDS011;23621;50.878;4.584;2023-11-21T10:16:06;50.97;;;23.30;;
37781;SDS011;23621;50.878;4.584;2023-11-21T10:18:58;46.30;;;23.77;;
37781;SDS011;23621;50.878;4.584;2023-11-21T10:21:57;44.85;;;24.23;;
37781;SDS011;23621;50.878;4.584;2023-11-21T10:24:47;44.92;;;24.85;;
37781;SDS011;23621;50.878;4.584;2023-11-21T10:27:40;43.88;;;24.05;;
37781;SDS011;23621;50.878;4.584;2023-11-21T10:30:31;39.95;;;23.42;;
37781;SDS011;23621;50.878;4.584;2023-11-21T10:33:27;39.35;;;22.83;;
37781;SDS011;23621;50.878;4.584;2023-11-21T10:36:29;41.05;;;23.67;;
37781;SDS011;23621;50.878;4.584;2023-11-21T10:39:17;36.38;;;21.95;;
37781;SDS011;23621;50.878;4.584;2023-11-21T10:42:07;38.13;;;22.67;;
37781;SDS011;23621;50.878;4.584;2023-11-21T10:44:57;35.92;;;23.30;;
37781;SDS011;23621;50.878;4.584;2023-11-21T10:47:44;35.63;;;21.92;;
37781;SDS011;23621;50.878;4.584;2023-11-21T10:50:32;38.10;;;22.45;;
37781;SDS011;23621;50.878;4.584;2023-11-21T10:53:21;35.25;;;22.05;;
37781;SDS011;23621;50.878;4.584;2023-11-21T10:56:08;32.90;;;22.27;;
37781;SDS011;23621;50.878;4.584;2023-11-21T10:59:04;33.78;;;22.63;;
37781;SDS011;23621;50.878;4.584;2023-11-21T11:01:53;33.92;;;20.92;;
37781;SDS011;23621;50.878;4.584;2023-11-21T11:04:44;31.70;;;21.30;;
37781;SDS011;23621;50.878;4.584;2023-11-21T11:07:32;33.92;;;21.38;;
37781;SDS011;23621;50.878;4.584;2023-11-21T11:10:22;33.35;;;20.73;;
37781;SDS011;23621;50.878;4.584;2023-11-21T11:13:12;33.10;;;20.50;;
37781;SDS011;23621;50.878;4.584;2023-11-21T11:16:01;33.13;;;22.10;;
37781;SDS011;23621;50.878;4.584;2023-11-21T11:18:50;34.88;;;21.17;;
37781;SDS011;23621;50.878;4.584;2023-11-21T11:30:55;31.85;;;20.15;;
37781;SDS011;23621;50.878;4.584;2023-11-21T11:37:13;30.85;;;21.35;;
37781;SDS011;23621;50.878;4.584;2023-11-21T11:40:01;32.53;;;21.38;;
37781;SDS011;23621;50.878;4.584;2023-11-21T11:43:00;34.88;;;21.70;;
37781;SDS011;23621;50.878;4.584;2023-11-21T11:45:51;35.03;;;22.13;;
37781;SDS011;23621;50.878;4.584;2023-11-21T11:48:41;35.95;;;22.02;;
37781;SDS011;23621;50.878;4.584;2023-11-21T11:51:32;32.38;;;21.02;;
37781;SDS011;23621;50.878;4.584;2023-11-21T11:54:34;33.40;;;21.13;;
37781;SDS011;23621;50.878;4.584;2023-11-21T11:57:25;39.45;;;21.50;;
37781;SDS011;23621;50.878;4.584;2023-11-21T12:00:13;31.23;;;20.75;;
37781;SDS011;23621;50.878;4.584;2023-11-21T12:03:09;33.17;;;20.92;;
37781;SDS011;23621;50.878;4.584;2023-11-21T12:05:56;29.20;;;18.75;;
37781;SDS011;23621;50.878;4.584;2023-11-21T12:08:45;26.98;;;17.80;;
37781;SDS011;23621;50.878;4.584;2023-11-21T12:11:33;27.25;;;17.00;;
37781;SDS011;23621;50.878;4.584;2023-11-21T12:14:23;29.25;;;16.98;;
37781;SDS011;23621;50.878;4.584;2023-11-21T12:17:11;25.23;;;17.05;;
37781;SDS011;23621;50.878;4.584;2023-11-21T12:20:02;26.05;;;15.80;;
37781;SDS011;23621;50.878;4.584;2023-11-21T12:23:00;26.02;;;15.35;;
37781;SDS011;23621;50.878;4.584;2023-11-21T12:25:48;24.83;;;17.73;;
37781;SDS011;23621;50.878;4.584;2023-11-21T12:28:35;32.28;;;20.50;;
37781;SDS011;23621;50.878;4.584;2023-11-21T12:31:23;23.38;;;15.30;;
37781;SDS011;23621;50.878;4.584;2023-11-21T12:34:11;30.42;;;20.88;;
37781;SDS011;23621;50.878;4.584;2023-11-21T12:36:59;27.38;;;16.88;;
37781;SDS011;23621;50.878;4.584;2023-11-21T12:39:47;29.13;;;18.20;;
37781;SDS011;23621;50.878;4.584;2023-11-21T12:42:35;34.78;;;25.40;;
37781;SDS011;23621;50.878;4.584;2023-11-21T12:45:23;19.17;;;14.20;;
37781;SDS011;23621;50.878;4.584;2023-11-21T12:48:12;11.10;;;8.82;;
37781;SDS011;23621;50.878;4.584;2023-11-21T12:51:00;11.20;;;8.25;;
37781;SDS011;23621;50.878;4.584;2023-11-21T12:53:49;11.18;;;7.50;;
37781;SDS011;23621;50.878;4.584;2023-11-21T12:56:44;8.45;;;6.97;;
37781;SDS011;23621;50.878;4.584;2023-11-21T12:59:35;9.27;;;6.78;;
37781;SDS011;23621;50.878;4.584;2023-11-21T13:02:26;8.40;;;6.35;;
37781;SDS011;23621;50.878;4.584;2023-11-21T13:05:22;7.45;;;6.20;;
37781;SDS011;23621;50.878;4.584;2023-11-21T13:08:17;7.50;;;6.80;;
37781;SDS011;23621;50.878;4.584;2023-11-21T13:11:07;10.13;;;6.40;;
37781;SDS011;23621;50.878;4.584;2023-11-21T13:13:55;6.43;;;5.80;;
37781;SDS011;23621;50.878;4.584;2023-11-21T13:16:43;8.95;;;6.05;;
37781;SDS011;23621;50.878;4.584;2023-11-21T13:19:33;7.65;;;6.55;;
37781;SDS011;23621;50.878;4.584;2023-11-21T13:22:20;5.85;;;5.25;;
37781;SDS011;23621;50.878;4.584;2023-11-21T13:25:07;8.27;;;5.68;;
37781;SDS011;23621;50.878;4.584;2023-11-21T13:27:55;6.43;;;5.60;;
37781;SDS011;23621;50.878;4.584;2023-11-21T13:30:43;7.85;;;6.32;;
37781;SDS011;23621;50.878;4.584;2023-11-21T13:33:31;7.15;;;5.53;;
37781;SDS011;23621;50.878;4.584;2023-11-21T13:36:20;6.72;;;6.03;;
37781;SDS011;23621;50.878;4.584;2023-11-21T13:39:12;6.53;;;5.70;;
37781;SDS011;23621;50.878;4.584;2023-11-21T13:42:02;5.88;;;5.28;;
37781;SDS011;23621;50.878;4.584;2023-11-21T13:44:55;7.75;;;5.70;;
37781;SDS011;23621;50.878;4.584;2023-11-21T13:47:43;6.78;;;4.97;;
37781;SDS011;23621;50.878;4.584;2023-11-21T13:50:32;6.47;;;5.50;;
37781;SDS011;23621;50.878;4.584;2023-11-21T13:53:20;5.32;;;4.85;;
37781;SDS011;23621;50.878;4.584;2023-11-21T13:56:11;6.20;;;5.05;;
37781;SDS011;23621;50.878;4.584;2023-11-21T13:59:00;6.00;;;5.20;;
37781;SDS011;23621;50.878;4.584;2023-11-21T14:01:56;5.47;;;4.97;;
37781;SDS011;23621;50.878;4.584;2023-11-21T14:04:59;6.88;;;5.05;;
37781;SDS011;23621;50.878;4.584;2023-11-21T14:07:49;4.72;;;4.32;;
37781;SDS011;23621;50.878;4.584;2023-11-21T14:10:37;5.32;;;4.80;;
37781;SDS011;23621;50.878;4.584;2023-11-21T14:13:29;5.40;;;4.90;;
37781;SDS011;23621;50.878;4.584;2023-11-21T14:16:17;5.85;;;5.25;;
37781;SDS011;23621;50.878;4.584;2023-11-21T14:19:05;5.72;;;4.97;;
37781;SDS011;23621;50.878;4.584;2023-11-21T14:22:02;4.85;;;4.32;;
37781;SDS011;23621;50.878;4.584;2023-11-21T14:24:49;5.45;;;3.92;;
37781;SDS011;23621;50.878;4.584;2023-11-21T14:27:38;5.50;;;4.93;;
37781;SDS011;23621;50.878;4.584;2023-11-21T14:30:26;6.72;;;4.70;;
37781;SDS011;23621;50.878;4.584;2023-11-21T14:33:15;4.93;;;4.53;;
37781;SDS011;23621;50.878;4.584;2023-11-21T14:36:03;4.60;;;4.25;;
37781;SDS011;23621;50.878;4.584;2023-11-21T14:38:50;4.90;;;4.28;;
37781;SDS011;23621;50.878;4.584;2023-11-21T14:41:37;4.35;;;3.90;;
37781;SDS011;23621;50.878;4.584;2023-11-21T14:44:26;5.53;;;3.90;;
37781;SDS011;23621;50.878;4.584;2023-11-21T14:47:17;4.35;;;3.95;;
37781;SDS011;23621;50.878;4.584;2023-11-21T14:50:11;4.50;;;4.10;;
37781;SDS011;23621;50.878;4.584;2023-11-21T14:53:17;4.05;;;3.65;;
37781;SDS011;23621;50.878;4.584;2023-11-21T14:56:26;3.80;;;3.50;;
37781;SDS011;23621;50.878;4.584;2023-11-21T14:59:17;4.72;;;3.58;;
37781;SDS011;23621;50.878;4.584;2023-11-21T15:02:04;4.35;;;3.95;;
37781;SDS011;23621;50.878;4.584;2023-11-21T15:05:01;6.18;;;4.60;;
37781;SDS011;23621;50.878;4.584;2023-11-21T15:07:49;5.55;;;4.43;;
37781;SDS011;23621;50.878;4.584;2023-11-21T15:10:39;5.53;;;5.03;;
37781;SDS011;23621;50.878;4.584;2023-11-21T15:13:34;5.70;;;5.20;;
37781;SDS011;23621;50.878;4.584;2023-11-21T15:16:22;6.95;;;6.25;;
37781;SDS011;23621;50.878;4.584;2023-11-21T15:19:09;7.50;;;6.00;;
37781;SDS011;23621;50.878;4.584;2023-11-21T15:21:58;6.95;;;6.25;;
37781;SDS011;23621;50.878;4.584;2023-11-21T15:24:46;7.38;;;6.68;;
37781;SDS011;23621;50.878;4.584;2023-11-21T15:27:34;9.70;;;6.80;;
37781;SDS011;23621;50.878;4.584;2023-11-21T15:30:21;7.95;;;6.95;;
37781;SDS011;23621;50.878;4.584;2023-11-21T15:33:11;7.68;;;6.45;;
37781;SDS011;23621;50.878;4.584;2023-11-21T15:35:59;7.32;;;6.15;;
37781;SDS011;23621;50.878;4.584;2023-11-21T15:38:46;6.97;;;6.30;;
37781;SDS011;23621;50.878;4.584;2023-11-21T15:41:33;6.35;;;5.75;;
37781;SDS011;23621;50.878;4.584;2023-11-21T15:44:21;6.50;;;5.90;;
37781;SDS011;23621;50.878;4.584;2023-11-21T15:47:09;6.90;;;6.20;;
37781;SDS011;23621;50.878;4.584;2023-11-21T15:49:57;8.10;;;6.50;;
37781;SDS011;23621;50.878;4.584;2023-11-21T15:52:44;7.47;;;6.78;;
37781;SDS011;23621;50.878;4.584;2023-11-21T15:55:43;7.40;;;6.60;;
37781;SDS011;23621;50.878;4.584;2023-11-21T15:58:31;8.13;;;7.13;;
37781;SDS011;23621;50.878;4.584;2023-11-21T16:01:19;8.90;;;8.00;;
37781;SDS011;23621;50.878;4.584;2023-11-21T16:04:09;8.10;;;6.95;;
37781;SDS011;23621;50.878;4.584;2023-11-21T16:06:58;9.32;;;8.43;;
37781;SDS011;23621;50.878;4.584;2023-11-21T16:09:48;10.25;;;8.38;;
37781;SDS011;23621;50.878;4.584;2023-11-21T16:12:36;9.20;;;8.30;;
37781;SDS011;23621;50.878;4.584;2023-11-21T16:15:27;9.98;;;8.98;;
37781;SDS011;23621;50.878;4.584;2023-11-21T16:18:15;10.38;;;9.18;;
37781;SDS011;23621;50.878;4.584;2023-11-21T16:21:02;9.88;;;8.90;;
37781;SDS011;23621;50.878;4.584;2023-11-21T16:23:50;9.95;;;8.95;;
37781;SDS011;23621;50.878;4.584;2023-11-21T16:26:41;10.57;;;9.30;;
37781;SDS011;23621;50.878;4.584;2023-11-21T16:29:30;10.80;;;9.70;;
37781;SDS011;23621;50.878;4.584;2023-11-21T16:32:20;10.90;;;9.57;;
37781;SDS011;23621;50.878;4.584;2023-11-21T16:35:07;14.82;;;12.40;;
37781;SDS011;23621;50.878;4.584;2023-11-21T16:37:56;14.20;;;12.70;;
37781;SDS011;23621;50.878;4.584;2023-11-21T16:40:44;16.20;;;14.50;;
37781;SDS011;23621;50.878;4.584;2023-11-21T16:43:32;19.40;;;15.65;;
37781;SDS011;23621;50.878;4.584;2023-11-21T16:46:19;12.95;;;11.27;;
37781;SDS011;23621;50.878;4.584;2023-11-21T16:49:07;11.00;;;9.85;;
37781;SDS011;23621;50.878;4.584;2023-11-21T16:51:54;11.02;;;9.93;;